»·PEaware :: N64JD KVCV-KBFL

N64JD :: KVCV-KBFL

FLIGHT INFORMATION

Flight Status: Arrived
Operator: Privately registered:
United States
More flights under this callsign
Pilot: Alfred D. (6795)
Aircraft: SIKORSKY S-61A/B/D/L/N SEA-KING
(S61)
More flights by this aircraft type
Origin: KVCV Socal Logistics
United States
Destination: KBFL Meadows
United States
More flights between these airports :: More routes between these airports
Route:
File this flight plan on PilotEdge
Remarks:
Altitude:
(Current/Filed)
0ft
Speed:
(Current/Filed)
0kts
Departed: 29-Oct-22 01:23 PM
Arrived: 29-Oct-22 02:11 PM
Distance/Time
Traveled:
96nm/0:48
Distance/Time
To Go:
Arrived

Flight Plot

Page will automatically refresh every two minutes.


Map Options




Map Legend


Flown Route
Filed Route
Departure Airport
Arrival Airport
Navaid (VOR, NDB)
Fix

Horizontal Profiles

Position Reports

Time Latitude Longitude Heading Altitude Ground
Speed
29-Oct-22 13:08 34.588793 -117.376209 314 2871ft 0kts
29-Oct-22 13:09 34.588793 -117.376209 314 2871ft 0kts
29-Oct-22 13:10 34.588793 -117.376209 314 2871ft 0kts
29-Oct-22 13:11 34.588793 -117.376209 314 2871ft 0kts
29-Oct-22 13:12 34.588793 -117.376209 314 2871ft 0kts
29-Oct-22 13:13 34.588793 -117.376209 314 2871ft 0kts
29-Oct-22 13:14 34.589197 -117.377401 241 2872ft 18kts
29-Oct-22 13:15 34.587617 -117.379123 226 2875ft 13kts
29-Oct-22 13:16 34.589869 -117.376202 41 2871ft 34kts
29-Oct-22 13:17 34.593050 -117.371788 81 2862ft 8kts
29-Oct-22 13:18 34.593582 -117.367925 20 2857ft 12kts
29-Oct-22 13:19 34.596915 -117.367147 10 2852ft 19kts
29-Oct-22 13:20 34.599042 -117.366631 9 2847ft 0kts
29-Oct-22 13:21 34.600205 -117.366706 284 2845ft 12kts
29-Oct-22 13:22 34.587345 -117.382555 224 3091ft 101kts
29-Oct-22 13:23 34.582806 -117.405270 5 4093ft 104kts
29-Oct-22 13:24 34.618643 -117.395365 3 4550ft 139kts
29-Oct-22 13:25 34.658427 -117.391547 5 4688ft 160kts
29-Oct-22 13:26 34.696800 -117.400110 297 4466ft 141kts
29-Oct-22 13:27 34.697246 -117.449975 270 4540ft 144kts
29-Oct-22 13:28 34.700356 -117.499359 283 4660ft 144kts
29-Oct-22 13:29 34.711215 -117.546736 274 4851ft 139kts
29-Oct-22 13:30 34.714755 -117.595591 278 5057ft 142kts
29-Oct-22 13:31 34.718793 -117.642942 278 5639ft 142kts
29-Oct-22 13:32 34.720802 -117.690677 271 6246ft 144kts
29-Oct-22 13:33 34.723604 -117.740555 284 6569ft 152kts
29-Oct-22 13:34 34.727921 -117.790379 268 6486ft 160kts
29-Oct-22 13:35 34.725044 -117.840938 272 6421ft 140kts
29-Oct-22 13:36 34.728276 -117.888458 277 6500ft 138kts
29-Oct-22 13:37 34.730288 -117.935773 284 6392ft 137kts
29-Oct-22 13:38 34.743916 -117.978195 300 6738ft 133kts
29-Oct-22 13:39 34.757591 -118.021587 290 6369ft 163kts
29-Oct-22 13:40 34.768840 -118.068377 298 5896ft 128kts
29-Oct-22 13:41 34.782508 -118.106780 301 6556ft 125kts
29-Oct-22 13:42 34.802421 -118.147919 301 6939ft 148kts
29-Oct-22 13:44 34.818224 -118.196343 288 6762ft 154kts
29-Oct-22 13:45 34.833542 -118.243574 291 7230ft 136kts
29-Oct-22 13:46 34.851829 -118.280317 314 8501ft 136kts
29-Oct-22 13:47 34.864681 -118.331398 284 8154ft 167kts
29-Oct-22 13:48 34.876473 -118.386615 299 7405ft 162kts
29-Oct-22 13:49 34.902495 -118.425514 316 7544ft 142kts
29-Oct-22 13:50 34.928094 -118.462253 322 7981ft 142kts
29-Oct-22 13:51 34.956636 -118.493740 321 8580ft 131kts
29-Oct-22 13:52 34.987121 -118.523613 326 8678ft 141kts
29-Oct-22 13:53 35.019066 -118.551944 327 8693ft 145kts
29-Oct-22 13:54 35.049565 -118.587289 318 7933ft 159kts
29-Oct-22 13:55 35.079614 -118.622176 315 7653ft 145kts
29-Oct-22 13:56 35.108646 -118.661381 306 6423ft 166kts
29-Oct-22 13:57 35.134718 -118.700231 317 6485ft 138kts
29-Oct-22 13:58 35.164953 -118.736032 315 5529ft 165kts
29-Oct-22 13:59 35.201774 -118.764785 326 4499ft 167kts
29-Oct-22 14:00 35.235228 -118.793288 319 3876ft 143kts
29-Oct-22 14:01 35.266871 -118.825035 323 2537ft 151kts
29-Oct-22 14:02 35.297587 -118.854469 320 1913ft 135kts
29-Oct-22 14:03 35.325753 -118.886670 315 1240ft 133kts
29-Oct-22 14:04 35.337133 -118.909885 292 1202ft 82kts
29-Oct-22 14:05 35.349913 -118.933425 313 750ft 83kts
29-Oct-22 14:06 35.363905 -118.952828 316 812ft 79kts
29-Oct-22 14:07 35.380423 -118.971243 318 1042ft 65kts
29-Oct-22 14:08 35.396373 -118.988872 315 941ft 85kts
29-Oct-22 14:09 35.405171 -119.018850 294 798ft 95kts
29-Oct-22 14:10 35.421645 -119.041677 318 725ft 91kts
29-Oct-22 14:11 35.432326 -119.054359 34 490ft 7kts
29-Oct-22 14:11 35.432656 -119.052473 115 497ft 14kts
29-Oct-22 14:12 35.433671 -119.050919 179 505ft 0kts
29-Oct-22 14:13 35.433671 -119.050919 180 505ft 0kts
29-Oct-22 14:15 35.433671 -119.050919 180 505ft 0kts

Navigation Log

Ident Type
Flight plan parsing failed, navigation log unavailable